createdAt,value
2023-11-24T00:01:28.417Z,7.42
2023-11-24T00:04:00.516Z,7.39
2023-11-24T00:06:29.721Z,7.35
2023-11-24T00:08:57.834Z,7.33
2023-11-24T00:11:27.522Z,7.28
2023-11-24T00:13:55.758Z,7.20
2023-11-24T00:16:24.177Z,7.11
2023-11-24T00:18:52.834Z,7.04
2023-11-24T00:21:21.300Z,6.97
2023-11-24T00:23:49.583Z,6.90
2023-11-24T00:26:22.352Z,6.88
2023-11-24T00:28:50.419Z,6.86
2023-11-24T00:31:18.623Z,6.85
2023-11-24T00:33:48.612Z,6.85
2023-11-24T00:36:17.636Z,6.84
2023-11-24T00:38:45.835Z,6.81
2023-11-24T00:41:14.689Z,6.77
2023-11-24T00:43:43.215Z,6.75
2023-11-24T00:46:12.567Z,6.74
2023-11-24T00:48:41.354Z,6.74
2023-11-24T00:51:09.807Z,6.76
2023-11-24T00:53:38.379Z,6.76
2023-11-24T00:56:06.828Z,6.77
2023-11-24T00:58:34.796Z,6.78
2023-11-24T01:01:05.216Z,6.76
2023-11-24T01:03:33.404Z,6.79
2023-11-24T01:06:01.621Z,6.81
2023-11-24T01:08:29.704Z,6.85
2023-11-24T01:10:59.056Z,6.87
2023-11-24T01:13:28.082Z,6.88
2023-11-24T01:15:56.187Z,6.88
2023-11-24T01:18:26.864Z,6.86
2023-11-24T01:20:55.068Z,6.84
2023-11-24T01:23:23.686Z,6.80
2023-11-24T01:25:51.617Z,6.79
2023-11-24T01:28:19.657Z,6.77
2023-11-24T01:30:53.284Z,6.77
2023-11-24T01:33:22.479Z,6.75
2023-11-24T01:35:54.996Z,6.73
2023-11-24T01:38:25.519Z,6.73
2023-11-24T01:40:53.711Z,6.74
2023-11-24T01:43:21.794Z,6.77
2023-11-24T01:45:49.966Z,6.80
2023-11-24T01:48:18.863Z,6.83
2023-11-24T01:50:47.566Z,6.89
2023-11-24T01:53:15.932Z,6.93
2023-11-24T01:55:44.195Z,6.94
2023-11-24T01:58:12.241Z,6.94
2023-11-24T02:00:40.852Z,6.93
2023-11-24T02:03:11.998Z,6.93
2023-11-24T02:05:40.157Z,6.90
2023-11-24T02:08:08.218Z,6.90
2023-11-24T02:10:37.151Z,6.91
2023-11-24T02:13:05.388Z,6.91
2023-11-24T02:15:33.599Z,6.94
2023-11-24T02:18:01.755Z,6.96
2023-11-24T02:20:34.895Z,6.95
2023-11-24T02:23:02.917Z,6.94
2023-11-24T02:25:31.161Z,6.94
2023-11-24T02:27:59.310Z,6.93
2023-11-24T02:30:27.585Z,6.88
2023-11-24T02:32:55.676Z,6.85
2023-11-24T02:35:23.929Z,6.85
2023-11-24T02:37:52.212Z,6.85
2023-11-24T02:40:20.273Z,6.86
2023-11-24T02:42:50.865Z,6.89
2023-11-24T02:45:18.903Z,6.89
2023-11-24T02:47:46.990Z,6.90
2023-11-24T02:50:15.050Z,6.88
2023-11-24T02:52:43.042Z,6.83
2023-11-24T02:55:12.199Z,6.78
2023-11-24T02:57:40.157Z,6.75
2023-11-24T03:00:09.535Z,6.71
2023-11-24T03:02:37.811Z,6.70
2023-11-24T03:05:06.124Z,6.68
2023-11-24T03:07:37.125Z,6.67
2023-11-24T03:10:07.613Z,6.66
2023-11-24T03:12:35.955Z,6.58
2023-11-24T03:15:04.480Z,6.51
2023-11-24T03:17:33.506Z,6.43
2023-11-24T03:20:04.602Z,6.33
2023-11-24T03:22:32.582Z,6.28
2023-11-24T03:25:00.563Z,6.25
2023-11-24T03:27:29.223Z,6.21
2023-11-24T03:29:57.410Z,6.14
2023-11-24T03:32:28.982Z,6.09
2023-11-24T03:34:59.630Z,6.08
2023-11-24T03:37:28.122Z,6.03
2023-11-24T03:39:56.318Z,5.93
2023-11-24T03:42:24.516Z,5.88
2023-11-24T03:44:52.561Z,5.84
2023-11-24T03:47:20.739Z,5.79
2023-11-24T03:49:49.050Z,5.75
2023-11-24T03:52:17.058Z,5.71
2023-11-24T03:54:45.497Z,5.68
2023-11-24T03:57:13.594Z,5.67
2023-11-24T03:59:41.826Z,5.65
2023-11-24T04:02:09.910Z,5.66
2023-11-24T04:04:38.239Z,5.67
2023-11-24T04:07:06.322Z,5.66
2023-11-24T04:09:34.415Z,5.66
2023-11-24T04:12:02.625Z,5.64
2023-11-24T04:14:30.894Z,5.61
2023-11-24T04:17:01.392Z,5.58
2023-11-24T04:19:29.674Z,5.56
2023-11-24T04:21:57.828Z,5.53
2023-11-24T04:24:25.820Z,5.51
2023-11-24T04:26:53.733Z,5.48
2023-11-24T04:29:22.973Z,5.45
2023-11-24T04:31:51.105Z,5.42
2023-11-24T04:34:19.421Z,5.37
2023-11-24T04:36:47.525Z,5.33
2023-11-24T04:39:16.801Z,5.32
2023-11-24T04:41:47.957Z,5.30
2023-11-24T04:44:16.558Z,5.27
2023-11-24T04:46:44.640Z,5.22
2023-11-24T04:49:15.763Z,5.21
2023-11-24T04:51:43.898Z,5.22
2023-11-24T04:54:14.023Z,5.23
2023-11-24T04:56:42.105Z,5.24
2023-11-24T04:59:10.392Z,5.24
2023-11-24T05:01:38.537Z,5.23
2023-11-24T05:04:06.938Z,5.23
2023-11-24T05:06:34.980Z,5.22
2023-11-24T05:09:02.990Z,5.18
2023-11-24T05:11:31.001Z,5.16
2023-11-24T05:13:59.074Z,5.14
2023-11-24T05:16:28.175Z,5.13
2023-11-24T05:18:56.362Z,5.10
2023-11-24T05:21:24.565Z,5.09
2023-11-24T05:23:52.555Z,5.10
2023-11-24T05:26:23.925Z,5.11
2023-11-24T05:28:51.877Z,5.12
2023-11-24T05:31:20.021Z,5.10
2023-11-24T05:33:49.505Z,5.08
2023-11-24T05:36:17.678Z,5.07
2023-11-24T05:38:51.105Z,5.06
2023-11-24T05:41:19.325Z,5.05
2023-11-24T05:43:47.239Z,5.05
2023-11-24T05:46:15.538Z,5.04
2023-11-24T05:48:46.970Z,5.05
2023-11-24T05:51:15.279Z,5.01
2023-11-24T05:53:43.289Z,4.97
2023-11-24T05:56:11.369Z,4.94
2023-11-24T05:58:39.358Z,4.91
2023-11-24T06:01:07.651Z,4.89
2023-11-24T06:03:36.091Z,4.86
2023-11-24T06:06:04.435Z,4.84
2023-11-24T06:08:32.481Z,4.82
2023-11-24T06:11:00.751Z,4.81
2023-11-24T06:13:28.682Z,4.80
2023-11-24T06:16:00.669Z,4.79
2023-11-24T06:18:29.304Z,4.79
2023-11-24T06:20:57.539Z,4.76
2023-11-24T06:23:25.727Z,4.76
2023-11-24T06:25:53.858Z,4.76
2023-11-24T06:28:22.504Z,4.74
2023-11-24T06:30:50.600Z,4.71
2023-11-24T06:33:18.581Z,4.66
2023-11-24T06:35:46.931Z,4.63
2023-11-24T06:38:16.033Z,4.60
2023-11-24T06:40:45.123Z,4.59
2023-11-24T06:43:13.418Z,4.58
2023-11-24T06:45:41.551Z,4.57
2023-11-24T06:48:09.742Z,4.56
2023-11-24T06:50:38.794Z,4.55
2023-11-24T06:53:07.153Z,4.53
2023-11-24T06:55:35.462Z,4.51
2023-11-24T06:58:05.789Z,4.49
2023-11-24T07:00:34.092Z,4.51
2023-11-24T07:03:02.243Z,4.53
2023-11-24T07:05:30.378Z,4.51
2023-11-24T07:07:59.417Z,4.50
2023-11-24T07:10:27.856Z,4.49
2023-11-24T07:12:56.098Z,4.47
2023-11-24T07:15:24.050Z,4.44
2023-11-24T07:17:52.319Z,4.42
2023-11-24T07:20:20.455Z,4.40
2023-11-24T07:22:50.528Z,4.37
2023-11-24T07:25:19.564Z,4.37
2023-11-24T07:27:48.272Z,4.37
2023-11-24T07:30:16.947Z,4.38
2023-11-24T07:32:44.990Z,4.39
2023-11-24T07:35:15.583Z,4.40
2023-11-24T07:37:44.242Z,4.41
2023-11-24T07:40:16.256Z,4.44
2023-11-24T07:42:45.771Z,4.49
2023-11-24T07:45:14.213Z,4.55
2023-11-24T07:47:42.181Z,4.61
2023-11-24T07:50:10.613Z,4.73
2023-11-24T07:52:38.705Z,4.79
2023-11-24T07:55:07.454Z,4.88
2023-11-24T07:57:36.859Z,4.98
2023-11-24T08:00:06.341Z,5.03
2023-11-24T08:02:34.308Z,4.94
2023-11-24T08:05:02.517Z,4.84
2023-11-24T08:07:30.638Z,4.70
2023-11-24T08:09:58.677Z,4.54
2023-11-24T08:12:27.041Z,4.46
2023-11-24T08:14:56.860Z,4.46
2023-11-24T08:17:24.861Z,4.48
2023-11-24T08:19:53.736Z,4.50
2023-11-24T08:22:21.671Z,4.52
2023-11-24T08:24:49.612Z,4.51
2023-11-24T08:27:19.906Z,4.49
2023-11-24T08:29:48.129Z,4.46
2023-11-24T08:32:17.281Z,4.43
2023-11-24T08:34:45.389Z,4.42
2023-11-24T08:37:13.636Z,4.40
2023-11-24T08:39:42.064Z,4.38
2023-11-24T08:42:11.533Z,4.36
2023-11-24T08:44:40.558Z,4.37
2023-11-24T08:47:09.044Z,4.41
2023-11-24T08:49:37.652Z,4.45
2023-11-24T08:52:05.782Z,4.50
2023-11-24T08:54:33.984Z,4.53
2023-11-24T08:57:05.550Z,4.54
2023-11-24T08:59:33.621Z,4.57
2023-11-24T09:02:01.743Z,4.65
2023-11-24T09:04:32.333Z,4.76
2023-11-24T09:07:00.510Z,4.81
2023-11-24T09:09:29.941Z,4.87
2023-11-24T09:11:58.384Z,4.95
2023-11-24T09:14:26.748Z,5.04
2023-11-24T09:16:54.973Z,5.14
2023-11-24T09:19:23.311Z,5.18
2023-11-24T09:21:52.075Z,5.21
2023-11-24T09:24:20.205Z,5.22
2023-11-24T09:26:48.314Z,5.21
2023-11-24T09:29:16.442Z,5.18
2023-11-24T09:31:44.619Z,5.17
2023-11-24T09:34:13.663Z,5.16
2023-11-24T09:36:43.588Z,5.15
2023-11-24T09:39:11.658Z,5.17
2023-11-24T09:41:41.315Z,5.19
2023-11-24T09:44:14.222Z,5.18
2023-11-24T09:46:51.511Z,5.15
2023-11-24T09:49:21.701Z,5.10
2023-11-24T09:51:50.171Z,5.06
2023-11-24T09:54:22.938Z,5.05
2023-11-24T09:56:51.589Z,5.06
2023-11-24T09:59:20.118Z,5.09
2023-11-24T10:01:49.458Z,5.10
2023-11-24T10:04:17.679Z,5.12
2023-11-24T10:06:46.862Z,5.13
2023-11-24T10:09:23.248Z,5.10
2023-11-24T10:11:51.871Z,5.10
2023-11-24T10:14:23.230Z,5.10
2023-11-24T10:16:51.780Z,5.10
2023-11-24T10:19:22.930Z,5.06
2023-11-24T10:21:55.139Z,5.03
2023-11-24T10:24:26.636Z,5.04
2023-11-24T10:26:54.887Z,5.05
2023-11-24T10:29:28.651Z,5.04
2023-11-24T10:31:57.412Z,5.05
2023-11-24T10:34:27.527Z,5.07
2023-11-24T10:36:56.638Z,5.06
2023-11-24T10:39:26.990Z,5.05
2023-11-24T10:41:56.045Z,5.03
2023-11-24T10:44:26.586Z,5.02
2023-11-24T10:46:58.040Z,5.01
2023-11-24T10:49:36.335Z,5.00
2023-11-24T10:52:11.904Z,4.97
2023-11-24T10:54:43.418Z,4.97
2023-11-24T10:57:11.548Z,4.96
2023-11-24T10:59:40.731Z,4.95
2023-11-24T11:02:14.421Z,4.94
2023-11-24T11:05:01.679Z,4.93
2023-11-24T11:08:05.338Z,4.92
2023-11-24T11:10:46.137Z,4.92
2023-11-24T11:13:15.152Z,4.94
2023-11-24T11:15:44.274Z,4.96
2023-11-24T11:18:16.108Z,4.98
2023-11-24T11:20:46.118Z,4.97
2023-11-24T11:23:19.280Z,4.98
2023-11-24T11:25:48.632Z,4.99
2023-11-24T11:28:25.389Z,4.99
2023-11-24T11:30:59.154Z,5.00
2023-11-24T11:33:28.706Z,4.97
2023-11-24T11:36:06.886Z,4.94
2023-11-24T11:38:45.345Z,4.91
2023-11-24T11:41:43.074Z,4.82
2023-11-24T11:44:27.367Z,4.70
2023-11-24T11:47:23.027Z,4.58
2023-11-24T11:50:01.845Z,4.58
2023-11-24T11:52:32.551Z,4.54
2023-11-24T11:55:02.131Z,4.53
2023-11-24T11:57:30.883Z,4.49
2023-11-24T11:59:58.981Z,4.42
2023-11-24T12:02:28.286Z,4.37
2023-11-24T12:04:56.741Z,4.32
2023-11-24T12:07:27.489Z,4.28
2023-11-24T12:09:55.925Z,4.25
2023-11-24T12:12:24.605Z,4.27
2023-11-24T12:14:56.173Z,4.31
2023-11-24T12:17:25.765Z,4.33
2023-11-24T12:19:55.210Z,4.38
2023-11-24T12:22:24.886Z,4.40
2023-11-24T12:24:53.706Z,4.46
2023-11-24T12:27:22.602Z,4.49
2023-11-24T12:29:53.158Z,4.52
2023-11-24T12:32:25.263Z,4.56
2023-11-24T12:34:53.323Z,4.58
2023-11-24T12:37:21.782Z,4.59
2023-11-24T12:39:49.992Z,4.63
2023-11-24T12:42:18.187Z,4.70
2023-11-24T12:44:49.609Z,4.73
2023-11-24T12:47:41.622Z,4.78
2023-11-24T12:50:14.992Z,4.78
2023-11-24T12:52:46.323Z,4.76
2023-11-24T12:55:14.942Z,4.76
2023-11-24T12:57:46.801Z,4.78
2023-11-24T13:00:16.865Z,4.77
2023-11-24T13:02:46.329Z,4.72
2023-11-24T13:05:18.209Z,4.64
2023-11-24T13:07:48.561Z,4.59
2023-11-24T13:13:07.948Z,4.60
2023-11-24T13:15:36.161Z,4.59
2023-11-24T13:18:05.622Z,4.56
2023-11-24T13:20:36.764Z,4.56
2023-11-24T13:23:05.881Z,4.56
2023-11-24T13:25:37.808Z,4.55
2023-11-24T13:28:07.345Z,4.53
2023-11-24T13:30:35.587Z,4.51
2023-11-24T13:33:04.064Z,4.48
2023-11-24T13:35:32.758Z,4.42
2023-11-24T13:38:01.117Z,4.38
2023-11-24T13:40:32.661Z,4.31
2023-11-24T13:43:01.396Z,4.27
2023-11-24T13:45:29.515Z,4.22
2023-11-24T13:48:00.385Z,4.19
2023-11-24T13:50:30.638Z,4.15
2023-11-24T13:52:58.790Z,4.12
2023-11-24T13:55:35.800Z,4.09
2023-11-24T13:58:04.857Z,4.12
2023-11-24T14:00:33.339Z,4.11
2023-11-24T14:03:03.303Z,4.08
2023-11-24T14:05:31.978Z,4.04
2023-11-24T14:08:00.204Z,4.01
2023-11-24T14:10:28.556Z,4.03
2023-11-24T14:12:57.885Z,4.05
2023-11-24T14:15:26.095Z,4.07
2023-11-24T14:17:54.339Z,4.09
2023-11-24T14:20:22.680Z,4.09
2023-11-24T14:22:53.415Z,4.08
2023-11-24T14:25:21.839Z,4.07
2023-11-24T14:27:50.253Z,4.04
2023-11-24T14:30:19.814Z,4.01
2023-11-24T14:32:48.779Z,3.98
2023-11-24T14:35:17.121Z,3.95
2023-11-24T14:37:45.579Z,3.87
2023-11-24T14:40:20.478Z,3.91
2023-11-24T14:42:53.495Z,3.90
2023-11-24T14:45:22.492Z,3.88
2023-11-24T14:47:51.934Z,3.87
2023-11-24T14:50:29.001Z,3.86
2023-11-24T14:52:59.252Z,3.85
2023-11-24T14:55:30.211Z,3.84
2023-11-24T14:58:00.653Z,3.83
2023-11-24T15:00:35.163Z,3.80
2023-11-24T15:03:08.498Z,3.79
2023-11-24T15:05:40.969Z,3.77
2023-11-24T15:08:11.766Z,3.76
2023-11-24T15:10:45.002Z,3.76
2023-11-24T15:13:22.565Z,3.75
2023-11-24T15:15:51.800Z,3.73
2023-11-24T15:18:21.894Z,3.71
2023-11-24T15:20:54.763Z,3.70
2023-11-24T15:23:25.189Z,3.70
2023-11-24T15:25:54.239Z,3.69
2023-11-24T15:28:27.628Z,3.65
2023-11-24T15:30:57.794Z,3.62
2023-11-24T15:33:32.164Z,3.61
2023-11-24T15:36:01.912Z,3.59
2023-11-24T15:38:30.136Z,3.58
2023-11-24T15:40:58.628Z,3.56
2023-11-24T15:43:27.072Z,3.52
2023-11-24T15:45:57.132Z,3.51
2023-11-24T15:48:27.349Z,3.47
2023-11-24T15:50:57.792Z,3.46
2023-11-24T15:53:26.055Z,3.45
2023-11-24T15:55:54.739Z,3.43
2023-11-24T15:58:26.724Z,3.40
2023-11-24T16:00:58.247Z,3.38
2023-11-24T16:03:26.669Z,3.34
2023-11-24T16:05:56.338Z,3.33
2023-11-24T16:08:33.591Z,3.32
2023-11-24T16:11:10.865Z,3.33
2023-11-24T16:13:42.884Z,3.36
2023-11-24T16:16:12.245Z,3.33
2023-11-24T16:18:42.719Z,3.30
2023-11-24T16:21:11.387Z,3.27
2023-11-24T16:23:39.664Z,3.24
2023-11-24T16:26:08.305Z,3.21
2023-11-24T16:28:36.720Z,3.21
2023-11-24T16:31:05.929Z,3.22
2023-11-24T16:33:34.615Z,3.21
2023-11-24T16:36:02.882Z,3.20
2023-11-24T16:38:32.161Z,3.20
2023-11-24T16:41:05.089Z,3.20
2023-11-24T16:43:34.545Z,3.19
2023-11-24T16:46:08.195Z,3.18
2023-11-24T16:48:40.886Z,3.16
2023-11-24T16:51:09.161Z,3.16
2023-11-24T16:53:37.669Z,3.15
2023-11-24T16:56:06.060Z,3.13
2023-11-24T16:58:35.374Z,3.12
2023-11-24T17:01:04.075Z,3.09
2023-11-24T17:03:35.172Z,3.06
2023-11-24T17:06:05.295Z,3.06
2023-11-24T17:08:33.775Z,3.05
2023-11-24T17:11:08.280Z,3.05
2023-11-24T17:13:38.277Z,3.04
2023-11-24T17:16:07.984Z,3.04
2023-11-24T17:18:37.889Z,3.04
2023-11-24T17:21:06.331Z,3.04
2023-11-24T17:23:36.522Z,3.05
2023-11-24T17:26:05.172Z,3.05
2023-11-24T17:28:33.753Z,3.06
2023-11-24T17:31:05.273Z,3.06
2023-11-24T17:33:34.288Z,3.07
2023-11-24T17:36:05.120Z,3.09
2023-11-24T17:38:33.223Z,3.11
2023-11-24T17:41:02.822Z,3.12
2023-11-24T17:43:31.296Z,3.12
2023-11-24T17:45:59.884Z,3.14
2023-11-24T17:48:28.375Z,3.16
2023-11-24T17:50:56.743Z,3.18
2023-11-24T17:53:24.928Z,3.19
2023-11-24T17:55:53.304Z,3.20
2023-11-24T17:58:22.109Z,3.22
2023-11-24T18:00:50.207Z,3.23
2023-11-24T18:03:18.684Z,3.24
2023-11-24T18:05:46.821Z,3.24
2023-11-24T18:08:17.151Z,3.20
2023-11-24T18:10:45.220Z,3.27
2023-11-24T18:13:13.357Z,3.29
2023-11-24T18:15:41.666Z,3.31
2023-11-24T18:18:10.025Z,3.33
2023-11-24T18:20:38.224Z,3.34
2023-11-24T18:23:06.803Z,3.33
2023-11-24T18:25:40.005Z,3.32
2023-11-24T18:28:09.631Z,3.30
2023-11-24T18:30:39.166Z,3.30
2023-11-24T18:33:09.905Z,3.29
2023-11-24T18:35:39.970Z,3.28
2023-11-24T18:38:09.875Z,3.28
2023-11-24T18:40:38.596Z,3.28
2023-11-24T18:43:07.094Z,3.29
2023-11-24T18:45:35.741Z,3.30
2023-11-24T18:48:04.813Z,3.31
2023-11-24T18:50:33.713Z,3.31
2023-11-24T18:53:01.815Z,3.32
2023-11-24T18:55:30.247Z,3.34
2023-11-24T18:57:59.428Z,3.37
2023-11-24T19:00:28.531Z,3.44
2023-11-24T19:02:56.746Z,3.51
2023-11-24T19:05:25.019Z,3.56
2023-11-24T19:07:55.851Z,3.60
2023-11-24T19:10:23.982Z,3.61
2023-11-24T19:12:52.722Z,3.61
2023-11-24T19:15:21.426Z,3.60
2023-11-24T19:17:50.044Z,3.58
2023-11-24T19:20:19.252Z,3.57
2023-11-24T19:22:48.547Z,3.52
2023-11-24T19:25:16.808Z,3.50
2023-11-24T19:27:45.012Z,3.50
2023-11-24T19:30:13.393Z,3.52
2023-11-24T19:32:41.495Z,3.52
2023-11-24T19:35:10.126Z,3.55
2023-11-24T19:37:38.379Z,3.55
2023-11-24T19:40:07.442Z,3.53
2023-11-24T19:42:35.669Z,3.53
2023-11-24T19:45:04.176Z,3.53
2023-11-24T19:47:32.236Z,3.52
2023-11-24T19:50:00.336Z,3.50
2023-11-24T19:52:28.366Z,3.47
2023-11-24T19:54:56.473Z,3.45
2023-11-24T19:57:24.542Z,3.44
2023-11-24T19:59:56.117Z,3.43
2023-11-24T20:02:24.301Z,3.43
2023-11-24T20:04:52.916Z,3.44
2023-11-24T20:07:22.918Z,3.44
2023-11-24T20:09:53.908Z,3.43
2023-11-24T20:12:22.276Z,3.41
2023-11-24T20:14:50.531Z,3.39
2023-11-24T20:17:19.050Z,3.36
2023-11-24T20:19:47.278Z,3.35
2023-11-24T20:22:15.666Z,3.33
2023-11-24T20:24:44.294Z,3.31
2023-11-24T20:27:13.290Z,3.29
2023-11-24T20:29:41.493Z,3.26
2023-11-24T20:32:10.694Z,3.25
2023-11-24T20:34:39.025Z,3.24
2023-11-24T20:37:07.361Z,3.22
2023-11-24T20:39:35.521Z,3.21
2023-11-24T20:42:04.455Z,3.19
2023-11-24T20:44:34.313Z,3.20
2023-11-24T20:47:02.912Z,3.20
2023-11-24T20:49:31.125Z,3.21
2023-11-24T20:51:59.465Z,3.21
2023-11-24T20:54:27.659Z,3.21
2023-11-24T20:56:55.999Z,3.20
2023-11-24T20:59:24.572Z,3.20
2023-11-24T21:01:52.994Z,3.22
2023-11-24T21:04:21.769Z,3.22
2023-11-24T21:06:50.019Z,3.20
2023-11-24T21:09:18.771Z,3.18
2023-11-24T21:11:47.001Z,3.16
2023-11-24T21:14:15.142Z,3.15
2023-11-24T21:16:43.634Z,3.14
2023-11-24T21:19:12.904Z,3.13
2023-11-24T21:21:41.248Z,3.12
2023-11-24T21:24:10.249Z,3.10
2023-11-24T21:26:38.489Z,3.08
2023-11-24T21:29:07.528Z,3.08
2023-11-24T21:31:36.654Z,3.08
2023-11-24T21:34:05.051Z,3.08
2023-11-24T21:36:33.309Z,3.08
2023-11-24T21:39:03.944Z,3.08
2023-11-24T21:41:35.016Z,3.08
2023-11-24T21:44:03.528Z,3.08
2023-11-24T21:46:31.796Z,3.07
2023-11-24T21:49:00.061Z,3.05
2023-11-24T21:51:28.817Z,3.06
2023-11-24T21:53:57.172Z,3.04
2023-11-24T21:56:26.609Z,3.00
2023-11-24T21:58:54.929Z,2.99
2023-11-24T22:01:24.669Z,2.97
2023-11-24T22:03:53.680Z,2.94
2023-11-24T22:06:26.132Z,2.95
2023-11-24T22:08:55.593Z,2.96
2023-11-24T22:11:23.689Z,2.96
2023-11-24T22:13:51.791Z,2.98
2023-11-24T22:16:22.130Z,2.99
2023-11-24T22:18:51.620Z,2.98
2023-11-24T22:21:20.249Z,2.97
2023-11-24T22:23:48.528Z,2.97
2023-11-24T22:26:24.873Z,2.96
2023-11-24T22:28:54.508Z,2.94
2023-11-24T22:31:23.170Z,2.92
2023-11-24T22:33:51.667Z,2.92
2023-11-24T22:36:21.438Z,2.93
2023-11-24T22:38:50.694Z,2.94
2023-11-24T22:41:24.382Z,2.95
2023-11-24T22:43:54.067Z,2.94
2023-11-24T22:46:24.496Z,2.95
2023-11-24T22:48:53.658Z,2.97
2023-11-24T22:51:29.773Z,2.98
2023-11-24T22:53:58.050Z,2.98
2023-11-24T22:56:27.889Z,2.98
2023-11-24T22:58:57.604Z,2.95
2023-11-24T23:01:27.444Z,2.92
2023-11-24T23:04:01.247Z,2.91
2023-11-24T23:06:29.651Z,2.92
2023-11-24T23:08:58.038Z,2.92
2023-11-24T23:11:28.659Z,2.91
2023-11-24T23:13:58.634Z,2.92
2023-11-24T23:16:28.452Z,2.92
2023-11-24T23:18:58.579Z,2.92
2023-11-24T23:21:26.761Z,2.90
2023-11-24T23:23:56.745Z,2.94
2023-11-24T23:26:26.694Z,2.97
2023-11-24T23:28:54.938Z,2.99
2023-11-24T23:31:26.818Z,2.99
2023-11-24T23:33:56.890Z,3.00
2023-11-24T23:36:25.008Z,2.99
2023-11-24T23:38:53.433Z,2.99
2023-11-24T23:41:22.455Z,2.99
2023-11-24T23:43:50.977Z,2.95
2023-11-24T23:46:19.152Z,2.93
2023-11-24T23:49:01.705Z,2.89
2023-11-24T23:51:30.809Z,2.85
2023-11-24T23:53:58.961Z,2.81
2023-11-24T23:56:27.286Z,2.78
2023-11-24T23:58:55.630Z,2.75
